sensor_id;sensor_type;location;lat;lon;timestamp;P1;durP1;ratioP1;P2;durP2;ratioP2
78589;SDS011;67888;50.228;7.828;2023-02-18T00:00:21;4.37;;;1.70;;
78589;SDS011;67888;50.228;7.828;2023-02-18T00:05:22;4.07;;;1.73;;
78589;SDS011;67888;50.228;7.828;2023-02-18T00:10:23;3.95;;;1.50;;
78589;SDS011;67888;50.228;7.828;2023-02-18T00:15:24;3.40;;;1.40;;
78589;SDS011;67888;50.228;7.828;2023-02-18T00:20:24;3.67;;;1.30;;
78589;SDS011;67888;50.228;7.828;2023-02-18T00:25:25;2.77;;;1.33;;
78589;SDS011;67888;50.228;7.828;2023-02-18T00:30:25;2.70;;;1.10;;
78589;SDS011;67888;50.228;7.828;2023-02-18T00:35:27;3.75;;;1.60;;
78589;SDS011;67888;50.228;7.828;2023-02-18T00:40:27;5.50;;;2.10;;
78589;SDS011;67888;50.228;7.828;2023-02-18T00:45:28;4.57;;;1.90;;
78589;SDS011;67888;50.228;7.828;2023-02-18T00:50:29;5.07;;;1.80;;
78589;SDS011;67888;50.228;7.828;2023-02-18T00:55:29;3.50;;;1.57;;
78589;SDS011;67888;50.228;7.828;2023-02-18T01:00:30;4.53;;;1.50;;
78589;SDS011;67888;50.228;7.828;2023-02-18T01:05:30;4.00;;;1.50;;
78589;SDS011;67888;50.228;7.828;2023-02-18T01:10:31;4.18;;;1.50;;
78589;SDS011;67888;50.228;7.828;2023-02-18T01:15:32;4.47;;;1.60;;
78589;SDS011;67888;50.228;7.828;2023-02-18T01:20:33;3.63;;;1.10;;
78589;SDS011;67888;50.228;7.828;2023-02-18T01:25:35;2.47;;;1.38;;
78589;SDS011;67888;50.228;7.828;2023-02-18T01:30:36;3.25;;;1.20;;
78589;SDS011;67888;50.228;7.828;2023-02-18T01:35:37;2.40;;;1.03;;
78589;SDS011;67888;50.228;7.828;2023-02-18T01:40:48;3.30;;;1.30;;
78589;SDS011;67888;50.228;7.828;2023-02-18T01:45:55;7.05;;;1.40;;
78589;SDS011;67888;50.228;7.828;2023-02-18T01:50:59;3.85;;;1.30;;
78589;SDS011;67888;50.228;7.828;2023-02-18T01:56:13;3.07;;;1.10;;
78589;SDS011;67888;50.228;7.828;2023-02-18T02:01:19;3.47;;;1.60;;
78589;SDS011;67888;50.228;7.828;2023-02-18T02:06:21;2.58;;;1.13;;
78589;SDS011;67888;50.228;7.828;2023-02-18T02:22:39;3.33;;;1.23;;
78589;SDS011;67888;50.228;7.828;2023-02-18T02:54:38;8.77;;;3.13;;
78589;SDS011;67888;50.228;7.828;2023-02-18T02:59:42;3.78;;;1.58;;
78589;SDS011;67888;50.228;7.828;2023-02-18T03:04:50;4.23;;;1.63;;
78589;SDS011;67888;50.228;7.828;2023-02-18T03:10:28;2.20;;;1.00;;
78589;SDS011;67888;50.228;7.828;2023-02-18T03:15:29;2.95;;;1.10;;
78589;SDS011;67888;50.228;7.828;2023-02-18T03:20:35;3.87;;;1.20;;
78589;SDS011;67888;50.228;7.828;2023-02-18T03:25:40;3.70;;;1.13;;
78589;SDS011;67888;50.228;7.828;2023-02-18T03:35:50;2.57;;;1.20;;
78589;SDS011;67888;50.228;7.828;2023-02-18T03:40:55;3.13;;;1.20;;
78589;SDS011;67888;50.228;7.828;2023-02-18T03:45:55;3.45;;;1.45;;
78589;SDS011;67888;50.228;7.828;2023-02-18T03:50:56;3.73;;;1.30;;
78589;SDS011;67888;50.228;7.828;2023-02-18T03:55:57;3.33;;;1.43;;
78589;SDS011;67888;50.228;7.828;2023-02-18T04:00:57;4.30;;;1.13;;
78589;SDS011;67888;50.228;7.828;2023-02-18T04:05:58;4.00;;;1.43;;
78589;SDS011;67888;50.228;7.828;2023-02-18T04:10:58;3.40;;;1.37;;
78589;SDS011;67888;50.228;7.828;2023-02-18T04:16:00;3.83;;;1.25;;
78589;SDS011;67888;50.228;7.828;2023-02-18T04:21:01;3.57;;;1.20;;
78589;SDS011;67888;50.228;7.828;2023-02-18T04:26:01;4.37;;;1.20;;
78589;SDS011;67888;50.228;7.828;2023-02-18T04:31:02;2.65;;;1.08;;
78589;SDS011;67888;50.228;7.828;2023-02-18T04:36:02;3.27;;;1.10;;
78589;SDS011;67888;50.228;7.828;2023-02-18T04:41:03;3.20;;;1.20;;
78589;SDS011;67888;50.228;7.828;2023-02-18T04:46:04;1.90;;;1.00;;
78589;SDS011;67888;50.228;7.828;2023-02-18T04:51:05;2.40;;;1.10;;
78589;SDS011;67888;50.228;7.828;2023-02-18T04:56:06;1.80;;;0.90;;
78589;SDS011;67888;50.228;7.828;2023-02-18T05:01:07;2.10;;;1.00;;
78589;SDS011;67888;50.228;7.828;2023-02-18T05:06:07;3.60;;;1.20;;
78589;SDS011;67888;50.228;7.828;2023-02-18T05:11:08;2.40;;;1.27;;
78589;SDS011;67888;50.228;7.828;2023-02-18T05:16:08;2.13;;;1.00;;
78589;SDS011;67888;50.228;7.828;2023-02-18T05:21:09;2.23;;;0.97;;
78589;SDS011;67888;50.228;7.828;2023-02-18T05:26:11;2.50;;;1.27;;
78589;SDS011;67888;50.228;7.828;2023-02-18T05:31:11;4.35;;;1.25;;
78589;SDS011;67888;50.228;7.828;2023-02-18T05:36:12;3.83;;;1.50;;
78589;SDS011;67888;50.228;7.828;2023-02-18T05:41:12;4.90;;;1.87;;
78589;SDS011;67888;50.228;7.828;2023-02-18T05:46:13;5.37;;;1.97;;
78589;SDS011;67888;50.228;7.828;2023-02-18T05:51:13;4.43;;;1.80;;
78589;SDS011;67888;50.228;7.828;2023-02-18T05:56:14;4.10;;;1.80;;
78589;SDS011;67888;50.228;7.828;2023-02-18T06:01:15;5.00;;;1.87;;
78589;SDS011;67888;50.228;7.828;2023-02-18T06:06:15;3.13;;;1.60;;
78589;SDS011;67888;50.228;7.828;2023-02-18T06:11:16;2.83;;;1.20;;
78589;SDS011;67888;50.228;7.828;2023-02-18T06:16:16;2.88;;;1.30;;
78589;SDS011;67888;50.228;7.828;2023-02-18T06:21:17;3.67;;;1.33;;
78589;SDS011;67888;50.228;7.828;2023-02-18T06:26:18;2.57;;;1.17;;
78589;SDS011;67888;50.228;7.828;2023-02-18T06:31:18;2.60;;;1.00;;
78589;SDS011;67888;50.228;7.828;2023-02-18T06:36:19;3.13;;;1.13;;
78589;SDS011;67888;50.228;7.828;2023-02-18T06:41:20;2.13;;;1.07;;
78589;SDS011;67888;50.228;7.828;2023-02-18T06:46:20;3.03;;;1.10;;
78589;SDS011;67888;50.228;7.828;2023-02-18T06:51:20;3.03;;;1.30;;
78589;SDS011;67888;50.228;7.828;2023-02-18T06:56:21;2.20;;;1.08;;
78589;SDS011;67888;50.228;7.828;2023-02-18T07:01:21;2.57;;;1.10;;
78589;SDS011;67888;50.228;7.828;2023-02-18T07:06:22;2.80;;;1.20;;
78589;SDS011;67888;50.228;7.828;2023-02-18T07:11:22;2.60;;;1.20;;
78589;SDS011;67888;50.228;7.828;2023-02-18T07:16:23;2.70;;;1.20;;
78589;SDS011;67888;50.228;7.828;2023-02-18T07:21:23;2.50;;;1.20;;
78589;SDS011;67888;50.228;7.828;2023-02-18T07:26:24;2.85;;;0.93;;
78589;SDS011;67888;50.228;7.828;2023-02-18T07:31:24;2.90;;;1.30;;
78589;SDS011;67888;50.228;7.828;2023-02-18T07:36:25;4.40;;;1.20;;
78589;SDS011;67888;50.228;7.828;2023-02-18T07:41:25;3.80;;;1.60;;
78589;SDS011;67888;50.228;7.828;2023-02-18T07:46:26;3.40;;;1.50;;
78589;SDS011;67888;50.228;7.828;2023-02-18T07:51:26;3.90;;;1.40;;
78589;SDS011;67888;50.228;7.828;2023-02-18T07:56:27;3.57;;;1.60;;
78589;SDS011;67888;50.228;7.828;2023-02-18T08:01:27;3.73;;;1.50;;
78589;SDS011;67888;50.228;7.828;2023-02-18T08:06:32;4.05;;;1.50;;
78589;SDS011;67888;50.228;7.828;2023-02-18T08:11:35;4.43;;;1.60;;
78589;SDS011;67888;50.228;7.828;2023-02-18T08:16:35;3.67;;;1.60;;
78589;SDS011;67888;50.228;7.828;2023-02-18T08:21:36;3.90;;;1.60;;
78589;SDS011;67888;50.228;7.828;2023-02-18T08:26:36;3.93;;;1.63;;
78589;SDS011;67888;50.228;7.828;2023-02-18T08:31:37;3.47;;;1.50;;
78589;SDS011;67888;50.228;7.828;2023-02-18T08:36:37;3.30;;;1.53;;
78589;SDS011;67888;50.228;7.828;2023-02-18T08:41:38;3.33;;;1.30;;
78589;SDS011;67888;50.228;7.828;2023-02-18T08:46:38;2.70;;;1.10;;
78589;SDS011;67888;50.228;7.828;2023-02-18T08:51:39;2.47;;;1.10;;
78589;SDS011;67888;50.228;7.828;2023-02-18T08:56:39;2.97;;;1.10;;
78589;SDS011;67888;50.228;7.828;2023-02-18T09:01:40;3.83;;;1.30;;
78589;SDS011;67888;50.228;7.828;2023-02-18T09:06:40;3.20;;;1.27;;
78589;SDS011;67888;50.228;7.828;2023-02-18T09:11:41;3.53;;;1.40;;
78589;SDS011;67888;50.228;7.828;2023-02-18T09:16:42;3.73;;;1.30;;
78589;SDS011;67888;50.228;7.828;2023-02-18T09:21:43;4.03;;;1.60;;
78589;SDS011;67888;50.228;7.828;2023-02-18T09:26:44;2.17;;;1.03;;
78589;SDS011;67888;50.228;7.828;2023-02-18T09:31:45;2.72;;;1.20;;
78589;SDS011;67888;50.228;7.828;2023-02-18T09:36:46;2.27;;;1.10;;
78589;SDS011;67888;50.228;7.828;2023-02-18T09:41:47;2.17;;;0.90;;
78589;SDS011;67888;50.228;7.828;2023-02-18T09:51:56;1.95;;;1.02;;
78589;SDS011;67888;50.228;7.828;2023-02-18T09:57:29;2.72;;;1.00;;
78589;SDS011;67888;50.228;7.828;2023-02-18T10:02:54;3.27;;;1.30;;
78589;SDS011;67888;50.228;7.828;2023-02-18T10:08:13;2.97;;;1.10;;
78589;SDS011;67888;50.228;7.828;2023-02-18T10:13:27;2.40;;;1.10;;
78589;SDS011;67888;50.228;7.828;2023-02-18T10:18:33;1.93;;;1.00;;
78589;SDS011;67888;50.228;7.828;2023-02-18T10:23:40;3.87;;;1.10;;
78589;SDS011;67888;50.228;7.828;2023-02-18T10:28:58;2.95;;;1.10;;
78589;SDS011;67888;50.228;7.828;2023-02-18T10:55:41;4.18;;;1.50;;
78589;SDS011;67888;50.228;7.828;2023-02-18T11:00:48;4.55;;;1.20;;
78589;SDS011;67888;50.228;7.828;2023-02-18T11:05:50;5.70;;;1.40;;
78589;SDS011;67888;50.228;7.828;2023-02-18T11:10:53;4.45;;;1.45;;
78589;SDS011;67888;50.228;7.828;2023-02-18T11:20:58;3.87;;;1.50;;
78589;SDS011;67888;50.228;7.828;2023-02-18T11:26:02;4.93;;;1.60;;
78589;SDS011;67888;50.228;7.828;2023-02-18T11:31:05;5.32;;;1.50;;
78589;SDS011;67888;50.228;7.828;2023-02-18T11:41:20;4.50;;;1.30;;
78589;SDS011;67888;50.228;7.828;2023-02-18T11:46:30;3.30;;;1.33;;
78589;SDS011;67888;50.228;7.828;2023-02-18T11:51:34;5.53;;;1.67;;
78589;SDS011;67888;50.228;7.828;2023-02-18T11:56:37;6.80;;;1.55;;
78589;SDS011;67888;50.228;7.828;2023-02-18T12:06:51;4.53;;;1.40;;
78589;SDS011;67888;50.228;7.828;2023-02-18T12:12:17;4.50;;;1.50;;
78589;SDS011;67888;50.228;7.828;2023-02-18T12:27:42;4.17;;;1.40;;
78589;SDS011;67888;50.228;7.828;2023-02-18T12:43:21;4.00;;;1.33;;
78589;SDS011;67888;50.228;7.828;2023-02-18T13:15:54;4.10;;;1.50;;
78589;SDS011;67888;50.228;7.828;2023-02-18T13:20:58;3.20;;;1.20;;
78589;SDS011;67888;50.228;7.828;2023-02-18T13:26:03;4.87;;;1.40;;
78589;SDS011;67888;50.228;7.828;2023-02-18T13:36:29;5.47;;;1.48;;
78589;SDS011;67888;50.228;7.828;2023-02-18T13:41:39;4.77;;;1.60;;
78589;SDS011;67888;50.228;7.828;2023-02-18T13:51:49;3.92;;;1.50;;
78589;SDS011;67888;50.228;7.828;2023-02-18T13:56:54;5.03;;;1.40;;
78589;SDS011;67888;50.228;7.828;2023-02-18T14:12:42;3.73;;;1.47;;
78589;SDS011;67888;50.228;7.828;2023-02-18T14:49:58;3.90;;;1.50;;
78589;SDS011;67888;50.228;7.828;2023-02-18T14:55:03;4.07;;;1.38;;
78589;SDS011;67888;50.228;7.828;2023-02-18T15:00:13;3.63;;;1.30;;
78589;SDS011;67888;50.228;7.828;2023-02-18T15:05:27;4.27;;;1.20;;
78589;SDS011;67888;50.228;7.828;2023-02-18T15:10:51;4.40;;;1.20;;
78589;SDS011;67888;50.228;7.828;2023-02-18T15:15:54;2.35;;;1.10;;
78589;SDS011;67888;50.228;7.828;2023-02-18T15:21:00;5.10;;;1.15;;
78589;SDS011;67888;50.228;7.828;2023-02-18T15:26:02;2.13;;;1.00;;
78589;SDS011;67888;50.228;7.828;2023-02-18T15:31:08;3.75;;;1.20;;
78589;SDS011;67888;50.228;7.828;2023-02-18T15:36:11;4.20;;;1.30;;
78589;SDS011;67888;50.228;7.828;2023-02-18T15:41:14;3.17;;;1.20;;
78589;SDS011;67888;50.228;7.828;2023-02-18T15:46:16;3.13;;;1.20;;
78589;SDS011;67888;50.228;7.828;2023-02-18T15:51:19;4.32;;;1.23;;
78589;SDS011;67888;50.228;7.828;2023-02-18T15:56:32;2.40;;;0.93;;
78589;SDS011;67888;50.228;7.828;2023-02-18T16:01:37;2.88;;;0.90;;
78589;SDS011;67888;50.228;7.828;2023-02-18T16:06:38;2.20;;;0.90;;
78589;SDS011;67888;50.228;7.828;2023-02-18T16:11:46;2.97;;;1.30;;
78589;SDS011;67888;50.228;7.828;2023-02-18T16:27:47;2.90;;;1.20;;
78589;SDS011;67888;50.228;7.828;2023-02-18T16:32:51;3.47;;;1.20;;
78589;SDS011;67888;50.228;7.828;2023-02-18T16:37:52;3.58;;;1.25;;
78589;SDS011;67888;50.228;7.828;2023-02-18T16:42:53;2.70;;;1.07;;
78589;SDS011;67888;50.228;7.828;2023-02-18T16:47:55;2.37;;;1.30;;
78589;SDS011;67888;50.228;7.828;2023-02-18T16:52:56;2.95;;;1.38;;
78589;SDS011;67888;50.228;7.828;2023-02-18T16:57:57;3.03;;;1.30;;
78589;SDS011;67888;50.228;7.828;2023-02-18T17:02:57;2.85;;;1.30;;
78589;SDS011;67888;50.228;7.828;2023-02-18T17:08:05;2.87;;;1.20;;
78589;SDS011;67888;50.228;7.828;2023-02-18T17:13:25;2.95;;;1.23;;
78589;SDS011;67888;50.228;7.828;2023-02-18T17:18:27;4.00;;;1.60;;
78589;SDS011;67888;50.228;7.828;2023-02-18T17:23:27;3.67;;;1.60;;
78589;SDS011;67888;50.228;7.828;2023-02-18T17:28:28;3.10;;;1.50;;
78589;SDS011;67888;50.228;7.828;2023-02-18T17:33:28;3.37;;;1.70;;
78589;SDS011;67888;50.228;7.828;2023-02-18T17:38:29;3.43;;;1.60;;
78589;SDS011;67888;50.228;7.828;2023-02-18T17:43:32;4.63;;;1.70;;
78589;SDS011;67888;50.228;7.828;2023-02-18T17:48:33;3.80;;;1.50;;
78589;SDS011;67888;50.228;7.828;2023-02-18T17:53:33;4.85;;;1.70;;
78589;SDS011;67888;50.228;7.828;2023-02-18T17:58:34;4.87;;;1.90;;
78589;SDS011;67888;50.228;7.828;2023-02-18T18:03:35;4.40;;;1.83;;
78589;SDS011;67888;50.228;7.828;2023-02-18T18:08:35;3.93;;;1.90;;
78589;SDS011;67888;50.228;7.828;2023-02-18T18:13:36;3.22;;;1.45;;
78589;SDS011;67888;50.228;7.828;2023-02-18T18:18:39;4.87;;;1.60;;
78589;SDS011;67888;50.228;7.828;2023-02-18T18:23:40;4.63;;;1.80;;
78589;SDS011;67888;50.228;7.828;2023-02-18T18:28:40;4.10;;;1.70;;
78589;SDS011;67888;50.228;7.828;2023-02-18T18:33:41;5.43;;;2.03;;
78589;SDS011;67888;50.228;7.828;2023-02-18T18:38:47;5.28;;;1.88;;
78589;SDS011;67888;50.228;7.828;2023-02-18T18:43:48;5.00;;;1.80;;
78589;SDS011;67888;50.228;7.828;2023-02-18T18:48:49;5.20;;;2.35;;
78589;SDS011;67888;50.228;7.828;2023-02-18T18:53:50;4.80;;;2.20;;
78589;SDS011;67888;50.228;7.828;2023-02-18T18:58:50;4.28;;;1.80;;
78589;SDS011;67888;50.228;7.828;2023-02-18T19:03:51;4.87;;;1.63;;
78589;SDS011;67888;50.228;7.828;2023-02-18T19:08:53;5.28;;;1.90;;
78589;SDS011;67888;50.228;7.828;2023-02-18T19:13:53;5.43;;;2.20;;
78589;SDS011;67888;50.228;7.828;2023-02-18T19:18:54;4.30;;;1.80;;
78589;SDS011;67888;50.228;7.828;2023-02-18T19:23:54;4.68;;;1.98;;
78589;SDS011;67888;50.228;7.828;2023-02-18T19:28:55;4.03;;;2.10;;
78589;SDS011;67888;50.228;7.828;2023-02-18T19:33:55;4.67;;;2.10;;
78589;SDS011;67888;50.228;7.828;2023-02-18T19:38:56;5.33;;;2.10;;
78589;SDS011;67888;50.228;7.828;2023-02-18T19:43:57;3.97;;;1.60;;
78589;SDS011;67888;50.228;7.828;2023-02-18T19:48:58;5.28;;;2.13;;
78589;SDS011;67888;50.228;7.828;2023-02-18T19:53:59;5.43;;;2.07;;
78589;SDS011;67888;50.228;7.828;2023-02-18T19:58:59;5.68;;;2.20;;
78589;SDS011;67888;50.228;7.828;2023-02-18T20:04:00;4.07;;;1.73;;
78589;SDS011;67888;50.228;7.828;2023-02-18T20:09:00;4.23;;;1.97;;
78589;SDS011;67888;50.228;7.828;2023-02-18T20:14:01;4.67;;;1.90;;
78589;SDS011;67888;50.228;7.828;2023-02-18T20:19:02;5.57;;;2.30;;
78589;SDS011;67888;50.228;7.828;2023-02-18T20:24:02;5.43;;;2.30;;
78589;SDS011;67888;50.228;7.828;2023-02-18T20:29:03;5.13;;;2.35;;
78589;SDS011;67888;50.228;7.828;2023-02-18T20:34:04;4.70;;;2.10;;
78589;SDS011;67888;50.228;7.828;2023-02-18T20:39:05;6.47;;;2.72;;
78589;SDS011;67888;50.228;7.828;2023-02-18T20:44:06;5.77;;;2.80;;
78589;SDS011;67888;50.228;7.828;2023-02-18T20:49:12;6.53;;;2.57;;
78589;SDS011;67888;50.228;7.828;2023-02-18T20:54:15;6.20;;;3.10;;
78589;SDS011;67888;50.228;7.828;2023-02-18T20:59:19;6.50;;;2.90;;
78589;SDS011;67888;50.228;7.828;2023-02-18T21:04:20;6.97;;;3.40;;
78589;SDS011;67888;50.228;7.828;2023-02-18T21:09:21;6.47;;;3.27;;
78589;SDS011;67888;50.228;7.828;2023-02-18T21:14:22;6.53;;;3.42;;
78589;SDS011;67888;50.228;7.828;2023-02-18T21:19:24;7.13;;;3.50;;
78589;SDS011;67888;50.228;7.828;2023-02-18T21:24:24;7.10;;;3.80;;
78589;SDS011;67888;50.228;7.828;2023-02-18T21:29:26;6.60;;;3.60;;
78589;SDS011;67888;50.228;7.828;2023-02-18T21:34:27;7.97;;;3.70;;
78589;SDS011;67888;50.228;7.828;2023-02-18T21:39:28;7.17;;;3.23;;
78589;SDS011;67888;50.228;7.828;2023-02-18T21:44:29;7.13;;;3.20;;
78589;SDS011;67888;50.228;7.828;2023-02-18T21:49:29;7.20;;;3.30;;
78589;SDS011;67888;50.228;7.828;2023-02-18T21:54:31;7.13;;;3.58;;
78589;SDS011;67888;50.228;7.828;2023-02-18T21:59:36;8.03;;;4.10;;
78589;SDS011;67888;50.228;7.828;2023-02-18T22:04:37;7.78;;;3.60;;
78589;SDS011;67888;50.228;7.828;2023-02-18T22:09:37;8.03;;;3.97;;
78589;SDS011;67888;50.228;7.828;2023-02-18T22:14:38;7.50;;;3.88;;
78589;SDS011;67888;50.228;7.828;2023-02-18T22:19:39;7.40;;;4.40;;
78589;SDS011;67888;50.228;7.828;2023-02-18T22:24:39;7.10;;;3.63;;
78589;SDS011;67888;50.228;7.828;2023-02-18T22:29:40;7.75;;;3.75;;
78589;SDS011;67888;50.228;7.828;2023-02-18T22:34:41;7.63;;;3.50;;
78589;SDS011;67888;50.228;7.828;2023-02-18T22:39:41;6.53;;;3.37;;
78589;SDS011;67888;50.228;7.828;2023-02-18T22:44:42;6.50;;;3.47;;
78589;SDS011;67888;50.228;7.828;2023-02-18T22:49:43;7.93;;;3.50;;
78589;SDS011;67888;50.228;7.828;2023-02-18T22:54:44;6.45;;;3.22;;
78589;SDS011;67888;50.228;7.828;2023-02-18T22:59:45;6.33;;;3.00;;
78589;SDS011;67888;50.228;7.828;2023-02-18T23:04:45;6.67;;;3.10;;
78589;SDS011;67888;50.228;7.828;2023-02-18T23:09:46;6.80;;;3.13;;
78589;SDS011;67888;50.228;7.828;2023-02-18T23:14:47;6.50;;;3.43;;
78589;SDS011;67888;50.228;7.828;2023-02-18T23:19:49;6.05;;;2.80;;
78589;SDS011;67888;50.228;7.828;2023-02-18T23:24:51;6.10;;;2.80;;
78589;SDS011;67888;50.228;7.828;2023-02-18T23:29:51;5.83;;;2.83;;
78589;SDS011;67888;50.228;7.828;2023-02-18T23:34:52;6.40;;;2.88;;
78589;SDS011;67888;50.228;7.828;2023-02-18T23:39:53;6.57;;;3.10;;
78589;SDS011;67888;50.228;7.828;2023-02-18T23:44:53;6.43;;;3.27;;
78589;SDS011;67888;50.228;7.828;2023-02-18T23:49:55;6.28;;;2.92;;
78589;SDS011;67888;50.228;7.828;2023-02-18T23:54:56;6.95;;;2.42;;
78589;SDS011;67888;50.228;7.828;2023-02-18T23:59:56;5.50;;;2.73;;
